Time;durP1;ratioP1;P1;durP2;ratioP2;P2;SDS_P1;SDS_P2;PMS_P1;PMS_P2;Temp;Humidity;BMP_temperature;BMP_pressure;BME280_temperature;BME280_humidity;BME280_pressure;Samples;Min_cycle;Max_cycle;Signal;HPM_P1;HPM_P2
2022/12/06 00:01:31;;;;;;;3.90;3.60;;;19.30;38.30;;;;;;5000306;28;20432;-59
2022/12/06 00:04:00;;;;;;;4.40;4.20;;;19.30;38.40;;;;;;5002414;28;20420;-59
2022/12/06 00:06:28;;;;;;;4.37;4.17;;;19.30;38.40;;;;;;4989806;28;20561;-59
2022/12/06 00:08:55;;;;;;;5.33;5.03;;;19.30;38.40;;;;;;4983803;28;20431;-60
2022/12/06 00:11:27;;;;;;;4.60;4.40;;;19.30;38.40;;;;;;4985148;28;20470;-59
2022/12/06 00:13:54;;;;;;;4.33;4.13;;;19.30;38.40;;;;;;5002684;28;20426;-59
2022/12/06 00:16:20;;;;;;;4.50;4.30;;;19.30;38.30;;;;;;5003643;28;20461;-59
2022/12/06 00:18:46;;;;;;;4.40;4.10;;;19.30;38.30;;;;;;4999056;28;20420;-59
2022/12/06 00:21:20;;;;;;;4.40;4.10;;;19.30;38.40;;;;;;4991655;28;20712;-59
2022/12/06 00:23:47;;;;;;;4.43;4.23;;;19.30;38.50;;;;;;4984740;28;20444;-59
2022/12/06 00:26:14;;;;;;;5.20;4.80;;;19.20;38.40;;;;;;4996393;28;20425;-60
2022/12/06 00:28:40;;;;;;;4.20;4.00;;;19.30;38.50;;;;;;4991451;28;20436;-59
2022/12/06 00:31:08;;;;;;;4.07;3.87;;;19.30;38.40;;;;;;4994876;28;20949;-59
2022/12/06 00:33:35;;;;;;;4.30;4.10;;;19.30;38.50;;;;;;4994167;28;20335;-59
2022/12/06 00:36:22;;;;;;;4.87;4.57;;;19.30;38.50;;;;;;4990695;28;20429;-59
2022/12/06 00:38:48;;;;;;;4.47;4.27;;;19.20;38.30;;;;;;4982420;28;20905;-59
2022/12/06 00:41:17;;;;;;;4.40;4.10;;;19.30;39.20;;;;;;4980566;28;20474;-59
2022/12/06 00:43:43;;;;;;;4.70;4.50;;;19.20;39.10;;;;;;4983532;28;20453;-59
2022/12/06 00:46:14;;;;;;;4.33;4.13;;;19.20;38.30;;;;;;4984784;28;20466;-59
2022/12/06 00:48:39;;;;;;;4.73;4.53;;;19.20;38.40;;;;;;4977754;28;20425;-59
2022/12/06 00:51:05;;;;;;;4.30;4.10;;;19.30;38.40;;;;;;4992678;28;20419;-59
2022/12/06 00:53:30;;;;;;;4.70;4.40;;;19.20;38.20;;;;;;5003705;28;20848;-59
2022/12/06 00:55:56;;;;;;;4.33;4.13;;;19.30;38.30;;;;;;5002914;28;20740;-59
2022/12/06 00:58:22;;;;;;;4.10;3.90;;;19.30;38.30;;;;;;4998913;28;20237;-59
2022/12/06 01:00:48;;;;;;;5.27;4.97;;;19.20;38.30;;;;;;4997354;28;20228;-60
2022/12/06 01:03:14;;;;;;;4.90;4.60;;;19.20;38.20;;;;;;4996847;28;20483;-59
2022/12/06 01:05:44;;;;;;;4.80;4.50;;;19.20;38.20;;;;;;4993336;28;20238;-58
2022/12/06 01:08:10;;;;;;;5.07;4.77;;;19.20;38.10;;;;;;4987177;28;20220;-59
2022/12/06 01:10:37;;;;;;;4.60;4.40;;;19.20;38.10;;;;;;4984321;28;20558;-59
2022/12/06 01:13:03;;;;;;;4.53;4.23;;;19.20;38.20;;;;;;4988570;28;20991;-59
2022/12/06 01:15:29;;;;;;;4.20;4.00;;;19.20;38.10;;;;;;4981507;28;20504;-58
2022/12/06 01:17:55;;;;;;;4.73;4.40;;;19.20;38.20;;;;;;4982262;28;20457;-58
2022/12/06 01:20:20;;;;;;;4.27;4.07;;;19.20;38.30;;;;;;4984836;28;20532;-58
2022/12/06 01:22:49;;;;;;;5.03;4.73;;;19.20;38.20;;;;;;4979146;28;20746;-58
2022/12/06 01:25:15;;;;;;;5.93;5.57;;;19.20;38.30;;;;;;4980516;28;20241;-60
2022/12/06 01:27:40;;;;;;;4.50;4.20;;;19.20;38.30;;;;;;4981559;28;20444;-59
2022/12/06 01:30:06;;;;;;;4.40;4.20;;;19.20;38.40;;;;;;4984404;28;20598;-59
2022/12/06 01:32:32;;;;;;;4.17;3.87;;;19.20;38.40;;;;;;4985938;28;20227;-58
2022/12/06 01:34:57;;;;;;;4.00;3.80;;;19.20;39.20;;;;;;5001010;28;20435;-59
2022/12/06 01:37:23;;;;;;;4.50;4.30;;;19.20;38.40;;;;;;4998972;28;20566;-59
2022/12/06 01:39:48;;;;;;;4.60;4.40;;;19.20;38.20;;;;;;4996184;28;20226;-59
2022/12/06 01:42:14;;;;;;;5.00;4.73;;;19.20;38.20;;;;;;4985336;28;20219;-60
2022/12/06 01:44:47;;;;;;;4.40;4.20;;;19.20;38.10;;;;;;4975359;28;20234;-59
2022/12/06 01:47:19;;;;;;;5.03;4.73;;;19.20;37.90;;;;;;4980540;28;20476;-59
2022/12/06 01:49:51;;;;;;;4.77;4.57;;;19.20;38.10;;;;;;4981698;28;20492;-59
2022/12/06 01:52:18;;;;;;;4.93;4.63;;;19.20;38.10;;;;;;4985484;28;20432;-59
2022/12/06 01:54:44;;;;;;;5.40;5.10;;;19.20;38.20;;;;;;4981769;28;20448;-59
2022/12/06 01:57:12;;;;;;;4.37;4.17;;;19.20;38.20;;;;;;4983449;28;20843;-59
2022/12/06 01:59:38;;;;;;;4.67;4.40;;;19.20;38.20;;;;;;5000012;28;20700;-59
2022/12/06 02:02:04;;;;;;;4.27;4.07;;;19.10;38.20;;;;;;4983628;28;20467;-59
2022/12/06 02:04:30;;;;;;;4.70;4.40;;;19.20;38.20;;;;;;4985125;28;20486;-59
2022/12/06 02:06:57;;;;;;;4.90;4.60;;;19.20;38.20;;;;;;4984350;28;20218;-58
2022/12/06 02:09:25;;;;;;;4.63;4.37;;;19.20;38.30;;;;;;4977563;28;20445;-59
2022/12/06 02:11:51;;;;;;;4.37;4.17;;;19.20;38.30;;;;;;4995098;28;20763;-59
2022/12/06 02:14:21;;;;;;;4.27;4.07;;;19.20;38.30;;;;;;4997077;28;20437;-59
2022/12/06 02:17:10;;;;;;;4.80;4.50;;;19.20;38.30;;;;;;4997823;28;20226;-59
2022/12/06 02:19:35;;;;;;;4.53;4.33;;;19.20;38.30;;;;;;4992409;28;20551;-59
2022/12/06 02:22:05;;;;;;;4.43;4.20;;;19.20;38.40;;;;;;4990170;28;20627;-59
2022/12/06 02:24:41;;;;;;;5.10;4.90;;;19.20;38.40;;;;;;5002514;28;20207;-59
2022/12/06 02:27:44;;;;;;;4.13;3.93;;;19.10;38.40;;;;;;5000975;28;20782;-59
2022/12/06 02:30:30;;;;;;;4.90;4.60;;;19.10;38.30;;;;;;4997861;28;20446;-60
2022/12/06 02:33:03;;;;;;;4.60;4.30;;;19.20;38.50;;;;;;4995169;28;20433;-59
2022/12/06 02:35:42;;;;;;;4.70;4.40;;;19.20;38.50;;;;;;5004993;28;20421;-59
2022/12/06 02:39:06;;;;;;;3.90;3.70;;;19.20;38.50;;;;;;4986276;28;20431;-59
2022/12/06 02:41:42;;;;;;;4.50;4.30;;;19.20;38.30;;;;;;4963486;28;20467;-59
2022/12/06 02:44:19;;;;;;;5.00;4.70;;;19.10;38.40;;;;;;4984299;28;20495;-59
2022/12/06 02:46:47;;;;;;;4.43;4.23;;;19.20;38.50;;;;;;4997814;28;20442;-58
2022/12/06 02:49:14;;;;;;;5.20;4.83;;;19.20;38.50;;;;;;5001060;28;20452;-59
2022/12/06 02:51:40;;;;;;;4.83;4.63;;;19.20;38.50;;;;;;4998758;28;20423;-59
2022/12/06 02:54:08;;;;;;;5.30;5.00;;;19.20;38.50;;;;;;5002050;28;20434;-59
2022/12/06 02:56:34;;;;;;;4.63;4.43;;;19.20;38.50;;;;;;5007655;28;20222;-59
2022/12/06 02:59:00;;;;;;;4.07;3.87;;;19.20;38.50;;;;;;5002516;28;20424;-59
2022/12/06 03:01:33;;;;;;;4.80;4.50;;;19.20;38.30;;;;;;5002553;28;20273;-59
2022/12/06 03:04:32;;;;;;;3.97;3.73;;;19.20;38.00;;;;;;4997877;28;20219;-59
2022/12/06 03:07:54;;;;;;;4.27;3.97;;;19.20;37.90;;;;;;4991204;28;20470;-60
2022/12/06 03:10:48;;;;;;;4.90;4.60;;;19.20;38.00;;;;;;5019125;28;20454;-59
2022/12/06 03:13:21;;;;;;;4.57;4.30;;;19.20;37.90;;;;;;4998956;28;20439;-59
2022/12/06 03:16:03;;;;;;;4.20;4.00;;;19.10;37.70;;;;;;4989181;28;20434;-59
2022/12/06 03:18:43;;;;;;;4.47;4.27;;;19.20;37.80;;;;;;4994813;28;20475;-60
2022/12/06 03:21:16;;;;;;;4.17;3.97;;;19.10;37.80;;;;;;4980768;28;20449;-59
2022/12/06 03:23:45;;;;;;;5.03;4.73;;;19.10;37.90;;;;;;4985020;28;20438;-60
2022/12/06 03:26:15;;;;;;;4.17;3.87;;;19.10;38.80;;;;;;4984560;28;20448;-59
2022/12/06 03:28:44;;;;;;;4.50;4.20;;;19.20;38.10;;;;;;4982059;28;20473;-59
2022/12/06 03:31:13;;;;;;;4.97;4.63;;;19.20;38.20;;;;;;4987966;28;20440;-59
2022/12/06 03:33:44;;;;;;;4.27;3.97;;;19.10;37.90;;;;;;4979753;28;20446;-59
2022/12/06 03:36:13;;;;;;;4.53;4.23;;;19.10;38.00;;;;;;4986162;28;20466;-59
2022/12/06 03:38:46;;;;;;;4.67;4.37;;;19.20;38.00;;;;;;4992909;28;20438;-59
2022/12/06 03:41:15;;;;;;;4.40;4.13;;;19.20;38.00;;;;;;4991604;28;20438;-59
2022/12/06 03:43:40;;;;;;;4.30;4.10;;;19.10;37.80;;;;;;5002585;28;20436;-59
2022/12/06 03:46:13;;;;;;;3.97;3.77;;;19.10;37.80;;;;;;5000756;28;20780;-60
2022/12/06 03:49:00;;;;;;;4.70;4.40;;;19.10;37.80;;;;;;5002932;28;20219;-59
2022/12/06 03:51:28;;;;;;;4.33;4.13;;;19.20;38.00;;;;;;5001453;28;20424;-59
2022/12/06 03:53:58;;;;;;;3.93;3.73;;;19.10;38.00;;;;;;5010298;28;20539;-60
2022/12/06 03:56:24;;;;;;;4.53;4.33;;;19.10;38.10;;;;;;4998112;28;20474;-59
2022/12/06 03:58:50;;;;;;;4.97;4.67;;;19.10;38.20;;;;;;4985502;28;20909;-59
2022/12/06 04:01:15;;;;;;;4.80;4.50;;;19.20;38.30;;;;;;4979173;28;20445;-59
2022/12/06 04:03:41;;;;;;;4.07;3.87;;;19.10;38.30;;;;;;4980775;28;20930;-58
2022/12/06 04:06:08;;;;;;;4.37;4.07;;;19.10;38.10;;;;;;4985030;28;20232;-59
2022/12/06 04:08:34;;;;;;;4.03;3.80;;;19.10;38.10;;;;;;5004572;28;20292;-58
2022/12/06 04:10:59;;;;;;;4.03;3.83;;;19.10;37.90;;;;;;4999547;28;20460;-58
2022/12/06 04:13:25;;;;;;;5.93;4.20;;;19.20;37.90;;;;;;5004061;28;20251;-59
2022/12/06 04:15:54;;;;;;;4.00;3.80;;;19.10;37.50;;;;;;5004318;28;20318;-59
2022/12/06 04:18:20;;;;;;;4.43;4.23;;;19.10;37.60;;;;;;5003264;28;20219;-59
2022/12/06 04:23:38;;;;;;;3.90;3.70;;;19.10;37.40;;;;;;4984832;28;20222;-59
2022/12/06 04:26:06;;;;;;;4.63;4.33;;;19.20;37.60;;;;;;4988995;28;20483;-59
2022/12/06 04:39:30;;;;;;;3.97;3.77;;;19.10;37.60;;;;;;4998620;28;20505;-58
2022/12/06 04:44:40;;;;;;;4.10;3.90;;;19.10;37.70;;;;;;4998497;28;20325;-59
2022/12/06 04:47:06;;;;;;;4.10;3.90;;;19.10;37.80;;;;;;5001808;28;20893;-58
2022/12/06 04:49:33;;;;;;;4.00;3.70;;;19.10;38.00;;;;;;5001951;28;20223;-59
2022/12/06 04:51:58;;;;;;;4.10;3.90;;;19.10;37.90;;;;;;4999002;28;20439;-59
2022/12/06 04:54:24;;;;;;;4.77;4.47;;;19.10;38.00;;;;;;5002074;28;20458;-58
2022/12/06 04:56:50;;;;;;;4.50;4.20;;;19.10;38.10;;;;;;5001862;28;20216;-59
2022/12/06 04:59:15;;;;;;;4.53;4.23;;;19.20;38.30;;;;;;5000033;28;20223;-59
2022/12/06 05:01:41;;;;;;;4.40;4.20;;;19.20;38.30;;;;;;5000681;28;20223;-59
2022/12/06 05:04:06;;;;;;;4.43;4.13;;;19.20;38.40;;;;;;4998628;28;20575;-59
2022/12/06 05:06:32;;;;;;;4.50;4.30;;;19.20;38.40;;;;;;5003484;28;20318;-60
2022/12/06 05:08:57;;;;;;;4.10;3.90;;;19.20;38.40;;;;;;4997450;28;20238;-61
2022/12/06 05:11:23;;;;;;;4.57;4.30;;;19.20;38.50;;;;;;5000898;28;20678;-59
2022/12/06 05:13:48;;;;;;;4.43;4.20;;;19.20;39.10;;;;;;4999887;28;20654;-59
2022/12/06 05:16:14;;;;;;;4.13;3.90;;;19.20;38.40;;;;;;4990010;28;20212;-59
2022/12/06 05:18:40;;;;;;;3.67;3.47;;;19.30;38.40;;;;;;4984577;28;20305;-59
2022/12/06 05:21:08;;;;;;;4.23;4.03;;;19.30;38.30;;;;;;4980387;28;20238;-59
2022/12/06 05:23:34;;;;;;;3.87;3.67;;;19.30;38.30;;;;;;4990958;28;20223;-58
2022/12/06 05:26:02;;;;;;;4.70;4.40;;;19.30;38.20;;;;;;4976301;28;20436;-59
2022/12/06 05:28:28;;;;;;;4.40;4.20;;;19.40;38.30;;;;;;4983888;28;20571;-58
2022/12/06 05:30:54;;;;;;;3.77;3.57;;;19.30;38.20;;;;;;4994544;28;20463;-59
2022/12/06 05:33:20;;;;;;;4.23;4.03;;;19.40;38.30;;;;;;4990479;28;21693;-60
2022/12/06 05:35:45;;;;;;;4.30;4.10;;;19.40;38.30;;;;;;4979547;28;20559;-58
2022/12/06 05:38:11;;;;;;;4.47;4.17;;;19.40;38.30;;;;;;4982639;28;20219;-59
2022/12/06 05:40:39;;;;;;;3.80;3.60;;;19.40;38.40;;;;;;4977118;28;20553;-59
2022/12/06 05:43:04;;;;;;;4.27;3.97;;;19.40;38.40;;;;;;4983995;28;20224;-59
2022/12/06 05:45:30;;;;;;;4.57;4.27;;;19.40;38.40;;;;;;4976756;28;20471;-58
2022/12/06 05:47:55;;;;;;;4.30;4.10;;;19.40;38.40;;;;;;4982209;28;20224;-59
2022/12/06 05:50:21;;;;;;;4.03;3.83;;;19.40;38.50;;;;;;4978770;28;20232;-59
2022/12/06 05:52:46;;;;;;;4.30;4.00;;;19.40;38.50;;;;;;4975895;28;20334;-60
2022/12/06 05:55:12;;;;;;;4.00;3.80;;;19.40;38.60;;;;;;4981144;28;22953;-59
2022/12/06 05:57:37;;;;;;;4.13;3.93;;;19.40;38.60;;;;;;4980943;28;20307;-59
2022/12/06 06:00:04;;;;;;;3.70;3.50;;;19.30;38.50;;;;;;4984216;28;20219;-60
2022/12/06 06:02:30;;;;;;;3.53;3.33;;;19.40;38.60;;;;;;4974785;28;21621;-59
2022/12/06 06:04:55;;;;;;;4.20;4.00;;;19.30;38.50;;;;;;4972806;28;20525;-59
2022/12/06 06:07:21;;;;;;;3.70;3.50;;;19.40;38.50;;;;;;4984144;28;20223;-59
2022/12/06 06:09:46;;;;;;;4.50;4.30;;;19.40;38.50;;;;;;4993785;28;20227;-59
2022/12/06 06:12:12;;;;;;;3.90;3.60;;;19.40;38.70;;;;;;4979955;28;20289;-60
2022/12/06 06:14:38;;;;;;;3.70;3.50;;;19.40;38.60;;;;;;4972368;28;20231;-63
2022/12/06 06:17:04;;;;;;;4.07;3.87;;;19.40;38.60;;;;;;4976223;28;20483;-60
2022/12/06 06:19:29;;;;;;;3.70;3.50;;;19.40;38.60;;;;;;4981348;28;20261;-62
2022/12/06 06:21:55;;;;;;;3.70;3.50;;;19.40;38.60;;;;;;4980372;28;20313;-61
2022/12/06 06:24:21;;;;;;;4.27;4.00;;;19.40;38.60;;;;;;4997877;28;20390;-60
2022/12/06 06:26:47;;;;;;;3.37;3.17;;;19.40;38.60;;;;;;4992115;28;20707;-60
2022/12/06 06:29:12;;;;;;;3.57;3.37;;;19.40;39.40;;;;;;4995593;28;20446;-61
2022/12/06 06:31:38;;;;;;;3.80;3.60;;;19.30;38.50;;;;;;4994408;28;20269;-60
2022/12/06 06:34:03;;;;;;;3.63;3.43;;;19.40;38.50;;;;;;4994499;28;20692;-60
2022/12/06 06:36:29;;;;;;;4.13;3.93;;;19.40;38.50;;;;;;4980158;28;20238;-60
2022/12/06 06:38:54;;;;;;;3.70;3.40;;;19.40;38.10;;;;;;4941694;28;20310;-61
2022/12/06 06:41:20;;;;;;;4.13;3.93;;;19.40;38.10;;;;;;4967611;28;20359;-60
2022/12/06 06:43:45;;;;;;;3.37;3.17;;;19.40;38.20;;;;;;4979733;28;20244;-60
2022/12/06 06:46:11;;;;;;;3.70;3.50;;;19.40;38.20;;;;;;4985023;28;20333;-60
2022/12/06 06:48:38;;;;;;;3.73;3.53;;;19.40;38.30;;;;;;4996038;28;20312;-60
2022/12/06 06:51:06;;;;;;;3.07;2.87;;;19.40;38.40;;;;;;4992036;28;20220;-60
2022/12/06 06:53:32;;;;;;;3.97;3.67;;;19.40;38.40;;;;;;4983781;28;20428;-60
2022/12/06 06:55:57;;;;;;;3.40;3.20;;;19.40;38.50;;;;;;4976876;28;22734;-59
2022/12/06 06:58:23;;;;;;;3.27;3.07;;;19.40;38.50;;;;;;4977805;28;20224;-61
2022/12/06 07:00:57;;;;;;;3.80;3.50;;;19.40;38.50;;;;;;4978985;28;20253;-60
2022/12/06 07:03:24;;;;;;;3.67;3.47;;;19.40;38.50;;;;;;4972973;28;20768;-59
2022/12/06 07:05:58;;;;;;;3.20;3.00;;;19.40;38.60;;;;;;4995226;28;20898;-59
2022/12/06 07:08:25;;;;;;;4.30;3.70;;;19.40;38.60;;;;;;4996028;28;20465;-59
2022/12/06 07:10:50;;;;;;;3.40;3.20;;;19.40;38.60;;;;;;4989997;28;20455;-60
2022/12/06 07:13:17;;;;;;;3.53;3.23;;;19.40;38.70;;;;;;4993582;28;20924;-60
2022/12/06 07:15:43;;;;;;;4.03;3.67;;;19.40;38.60;;;;;;4991865;28;20244;-60
2022/12/06 07:18:09;;;;;;;4.17;3.77;;;19.40;38.60;;;;;;4990635;28;20566;-60
2022/12/06 07:20:34;;;;;;;3.60;3.40;;;19.40;38.60;;;;;;5000288;28;20795;-60
2022/12/06 07:23:00;;;;;;;4.27;3.73;;;19.40;38.60;;;;;;5000163;28;20229;-60
2022/12/06 07:25:26;;;;;;;3.60;3.30;;;19.40;38.70;;;;;;4972942;28;20282;-60
2022/12/06 07:27:51;;;;;;;3.30;3.10;;;19.40;38.60;;;;;;4991712;28;20219;-59
2022/12/06 07:30:17;;;;;;;3.20;3.00;;;19.40;38.70;;;;;;4998496;28;20223;-60
2022/12/06 07:32:42;;;;;;;3.40;3.20;;;19.40;38.70;;;;;;4997117;28;20227;-60
2022/12/06 07:35:08;;;;;;;3.10;2.90;;;19.40;38.70;;;;;;4998993;28;20238;-61
2022/12/06 07:37:34;;;;;;;3.27;3.07;;;19.40;38.70;;;;;;4980503;28;20229;-60
2022/12/06 07:39:59;;;;;;;3.40;3.20;;;19.40;38.60;;;;;;4984043;28;20402;-60
2022/12/06 07:45:11;;;;;;;3.80;3.60;;;19.40;38.70;;;;;;4988489;28;20239;-61
2022/12/06 07:47:39;;;;;;;3.43;3.23;;;19.40;38.70;;;;;;4991242;28;20439;-61
2022/12/06 07:50:07;;;;;;;3.33;3.13;;;19.40;38.70;;;;;;5000341;28;20423;-61
2022/12/06 07:52:34;;;;;;;3.10;2.90;;;19.40;38.70;;;;;;4993642;28;20941;-61
2022/12/06 07:55:01;;;;;;;3.20;3.00;;;19.40;38.70;;;;;;4994292;28;20419;-61
2022/12/06 07:57:27;;;;;;;3.33;3.13;;;19.40;38.70;;;;;;4983449;28;20437;-61
2022/12/06 07:59:54;;;;;;;3.20;3.00;;;19.40;38.70;;;;;;4997971;28;20537;-61
2022/12/06 08:02:22;;;;;;;3.43;3.13;;;19.40;38.70;;;;;;4989406;28;20451;-61
2022/12/06 08:04:49;;;;;;;3.60;3.30;;;19.40;38.70;;;;;;4998505;28;20453;-60
2022/12/06 08:07:14;;;;;;;2.50;2.40;;;19.40;38.70;;;;;;4999246;28;20939;-61
2022/12/06 08:09:40;;;;;;;3.27;3.07;;;19.40;38.70;;;;;;4997416;28;20423;-61
2022/12/06 08:12:07;;;;;;;2.93;2.73;;;19.40;38.70;;;;;;4997926;28;20237;-61
2022/12/06 08:14:33;;;;;;;3.00;2.80;;;19.40;38.70;;;;;;4993672;28;20235;-61
2022/12/06 08:16:59;;;;;;;3.03;2.83;;;19.30;38.60;;;;;;4978301;28;20422;-61
2022/12/06 08:19:25;;;;;;;2.60;2.50;;;19.40;38.70;;;;;;4982778;28;20431;-63
2022/12/06 08:21:50;;;;;;;3.00;2.80;;;19.40;38.70;;;;;;4974607;28;20219;-59
2022/12/06 08:24:16;;;;;;;3.20;3.00;;;19.40;38.70;;;;;;4986433;28;20224;-59
2022/12/06 08:26:41;;;;;;;3.00;2.80;;;19.40;38.70;;;;;;4979685;28;20222;-59
2022/12/06 08:29:07;;;;;;;2.93;2.83;;;19.30;38.60;;;;;;4988956;28;20211;-60
2022/12/06 08:31:33;;;;;;;2.77;2.60;;;19.40;38.70;;;;;;4997485;28;20239;-60
2022/12/06 08:33:59;;;;;;;2.83;2.63;;;19.30;38.60;;;;;;4993957;28;20309;-60
2022/12/06 08:36:26;;;;;;;3.30;3.10;;;19.40;38.70;;;;;;4993996;28;20529;-60
2022/12/06 08:38:52;;;;;;;2.77;2.67;;;19.40;38.70;;;;;;4977310;28;20473;-59
2022/12/06 08:44:03;;;;;;;2.70;2.50;;;19.40;38.70;;;;;;4989328;28;20302;-59
2022/12/06 08:46:30;;;;;;;2.93;2.73;;;19.30;38.60;;;;;;4988750;28;21016;-60
2022/12/06 08:48:55;;;;;;;2.67;2.50;;;19.30;38.60;;;;;;4987547;28;20445;-60
2022/12/06 08:51:21;;;;;;;2.90;2.80;;;19.30;38.60;;;;;;4973060;28;20892;-60
2022/12/06 08:53:47;;;;;;;2.73;2.63;;;19.40;38.70;;;;;;4972695;28;20222;-60
2022/12/06 08:56:12;;;;;;;2.93;2.83;;;19.30;38.60;;;;;;4973815;28;20255;-60
2022/12/06 08:58:38;;;;;;;2.83;2.67;;;19.40;38.70;;;;;;4978713;28;20269;-60
2022/12/06 09:01:16;;;;;;;3.20;3.00;;;19.30;38.70;;;;;;4992486;28;20330;-60
2022/12/06 09:03:41;;;;;;;2.47;2.33;;;19.30;38.60;;;;;;4975413;28;20232;-60
2022/12/06 09:06:08;;;;;;;2.47;2.37;;;19.40;38.70;;;;;;4979047;28;20447;-60
2022/12/06 09:08:35;;;;;;;2.47;2.27;;;19.30;38.60;;;;;;4978063;28;20228;-60
2022/12/06 09:11:00;;;;;;;2.80;2.53;;;19.30;38.60;;;;;;4979889;28;22647;-59
2022/12/06 09:13:26;;;;;;;2.83;2.63;;;19.30;38.70;;;;;;4965384;28;20428;-59
2022/12/06 09:15:51;;;;;;;2.40;2.30;;;19.30;38.60;;;;;;4980005;28;20251;-59
2022/12/06 09:18:17;;;;;;;2.70;2.57;;;19.30;38.60;;;;;;4978877;28;20265;-59
2022/12/06 09:20:42;;;;;;;1.97;1.87;;;19.30;38.60;;;;;;4973378;28;20710;-60
2022/12/06 09:23:08;;;;;;;2.63;2.43;;;19.30;38.60;;;;;;4972301;28;20630;-59
2022/12/06 09:25:33;;;;;;;2.50;2.40;;;19.30;38.60;;;;;;4984337;28;20226;-60
2022/12/06 09:27:59;;;;;;;2.80;2.60;;;19.30;38.60;;;;;;4985469;28;20242;-60
2022/12/06 09:30:25;;;;;;;2.60;2.50;;;19.30;38.60;;;;;;4982360;28;20231;-60
2022/12/06 09:32:52;;;;;;;2.40;2.30;;;19.30;38.60;;;;;;4987658;28;20220;-59
2022/12/06 09:35:18;;;;;;;2.53;2.43;;;19.30;38.60;;;;;;4990757;28;20567;-60
2022/12/06 09:37:44;;;;;;;2.00;1.90;;;19.30;38.60;;;;;;4972741;28;20420;-60
2022/12/06 09:40:24;;;;;;;2.30;2.20;;;19.30;38.60;;;;;;4971189;28;20436;-60
2022/12/06 09:43:08;;;;;;;2.50;2.30;;;19.30;38.60;;;;;;4975983;28;20444;-60
2022/12/06 09:45:45;;;;;;;3.20;2.10;;;19.30;38.60;;;;;;4974946;28;20965;-59
2022/12/06 09:48:24;;;;;;;2.13;2.03;;;19.30;38.60;;;;;;4978813;28;20991;-61
2022/12/06 09:51:07;;;;;;;2.80;2.50;;;19.30;38.60;;;;;;4988691;28;20980;-60
2022/12/06 09:53:33;;;;;;;3.20;2.50;;;19.30;38.60;;;;;;4971474;28;20433;-60
2022/12/06 09:56:05;;;;;;;2.20;2.10;;;19.30;38.60;;;;;;4974283;28;20472;-59
2022/12/06 09:58:56;;;;;;;2.50;2.30;;;19.30;39.30;;;;;;4980015;28;21986;-60
2022/12/06 10:01:47;;;;;;;2.00;1.90;;;19.30;38.70;;;;;;4988794;28;21129;-60
2022/12/06 10:04:40;;;;;;;2.50;2.40;;;19.30;38.60;;;;;;4988470;28;20489;-60
2022/12/06 10:07:15;;;;;;;2.10;1.90;;;19.30;38.60;;;;;;4986955;28;20890;-60
2022/12/06 10:09:49;;;;;;;2.13;2.03;;;19.30;38.60;;;;;;4970655;28;20440;-60
2022/12/06 10:12:46;;;;;;;2.60;2.50;;;19.30;38.70;;;;;;4982590;28;20563;-60
2022/12/06 10:15:32;;;;;;;2.40;2.30;;;19.30;38.60;;;;;;4978672;28;20453;-60
2022/12/06 10:18:16;;;;;;;2.20;2.10;;;19.30;38.60;;;;;;4994252;28;20481;-60
2022/12/06 10:21:04;;;;;;;1.93;1.83;;;19.30;38.60;;;;;;4991065;28;20921;-60
2022/12/06 10:23:49;;;;;;;2.30;2.20;;;19.20;38.50;;;;;;4970560;28;20466;-59
2022/12/06 10:26:18;;;;;;;2.03;1.93;;;19.30;38.60;;;;;;4971655;28;20440;-59
2022/12/06 10:28:45;;;;;;;1.87;1.77;;;19.30;38.60;;;;;;4974026;28;20450;-60
2022/12/06 10:31:21;;;;;;;2.13;2.03;;;19.30;38.60;;;;;;4968373;28;20465;-60
2022/12/06 10:34:11;;;;;;;2.40;2.30;;;19.30;38.60;;;;;;4970226;28;20447;-60
2022/12/06 10:37:13;;;;;;;2.30;2.20;;;19.30;38.60;;;;;;4980768;28;20482;-59
2022/12/06 10:39:39;;;;;;;1.80;1.70;;;19.30;38.60;;;;;;4987218;28;20494;-60
2022/12/06 10:42:14;;;;;;;2.00;1.90;;;19.30;38.60;;;;;;4988980;28;20432;-60
2022/12/06 10:44:56;;;;;;;2.00;1.90;;;19.30;38.60;;;;;;4985799;28;20216;-60
2022/12/06 10:47:30;;;;;;;1.80;1.70;;;19.20;38.50;;;;;;4976637;28;20479;-60
2022/12/06 10:50:03;;;;;;;2.00;1.90;;;19.30;38.60;;;;;;4963661;28;20439;-60
2022/12/06 10:52:33;;;;;;;2.07;1.97;;;19.20;38.60;;;;;;4956241;28;20433;-59
2022/12/06 10:55:08;;;;;;;2.00;1.90;;;19.30;38.60;;;;;;4958356;28;22295;-60
2022/12/06 10:57:36;;;;;;;2.00;1.90;;;19.30;38.60;;;;;;4973107;28;20784;-60
2022/12/06 11:00:18;;;;;;;2.13;2.03;;;19.30;38.60;;;;;;4991631;28;20864;-59
2022/12/06 11:02:59;;;;;;;2.13;1.93;;;19.30;38.60;;;;;;4981804;28;20451;-60
2022/12/06 11:05:36;;;;;;;2.17;1.97;;;19.30;38.60;;;;;;4971923;28;20463;-60
2022/12/06 11:08:23;;;;;;;1.80;1.70;;;19.30;38.70;;;;;;4978948;28;20918;-60
2022/12/06 11:10:50;;;;;;;2.00;1.90;;;19.30;38.60;;;;;;4983131;28;20802;-60
2022/12/06 11:13:28;;;;;;;2.43;2.23;;;19.30;38.60;;;;;;4958704;28;20580;-60
2022/12/06 11:16:06;;;;;;;1.77;1.67;;;19.30;38.60;;;;;;4974210;28;20850;-60
2022/12/06 11:18:32;;;;;;;1.90;1.80;;;19.30;38.60;;;;;;4988855;28;21055;-60
2022/12/06 11:21:12;;;;;;;2.13;2.03;;;19.30;38.60;;;;;;4992896;28;20443;-60
2022/12/06 11:23:49;;;;;;;2.20;2.10;;;19.20;38.50;;;;;;4978377;28;21045;-60
2022/12/06 11:26:41;;;;;;;1.77;1.67;;;19.30;38.60;;;;;;4975635;28;20443;-60
2022/12/06 11:29:11;;;;;;;1.73;1.63;;;19.20;38.50;;;;;;4953983;28;20824;-63
2022/12/06 11:31:37;;;;;;;1.67;1.57;;;19.30;38.60;;;;;;4981427;28;20537;-63
2022/12/06 11:34:04;;;;;;;1.87;1.77;;;19.30;38.60;;;;;;4988633;28;20442;-61
2022/12/06 11:36:31;;;;;;;2.00;1.90;;;19.20;38.50;;;;;;4988517;28;20270;-62
2022/12/06 11:38:57;;;;;;;2.10;2.00;;;19.30;38.60;;;;;;4972272;28;20453;-61
2022/12/06 11:41:27;;;;;;;2.00;1.90;;;19.30;38.60;;;;;;4971122;28;20437;-61
2022/12/06 11:43:54;;;;;;;1.80;1.70;;;19.20;38.50;;;;;;4989589;28;20437;-61
2022/12/06 11:46:21;;;;;;;1.67;1.57;;;19.30;38.60;;;;;;4992512;28;20477;-62
2022/12/06 11:48:47;;;;;;;1.90;1.80;;;19.30;38.60;;;;;;4988526;28;20539;-61
2022/12/06 11:51:17;;;;;;;2.33;2.00;;;19.30;38.60;;;;;;4986609;28;20493;-61
2022/12/06 11:54:04;;;;;;;1.80;1.63;;;19.30;38.60;;;;;;4979707;28;20223;-61
2022/12/06 11:56:37;;;;;;;1.70;1.60;;;19.20;38.50;;;;;;4976067;28;20994;-61
2022/12/06 11:59:25;;;;;;;1.83;1.73;;;19.30;38.60;;;;;;4977361;28;20430;-62
2022/12/06 12:02:02;;;;;;;1.90;1.80;;;19.20;38.50;;;;;;4983136;28;20426;-61
2022/12/06 12:04:37;;;;;;;1.80;1.70;;;19.20;38.50;;;;;;4971428;28;20461;-61
2022/12/06 12:07:09;;;;;;;1.50;1.40;;;19.30;38.60;;;;;;4971001;28;20442;-61
2022/12/06 12:09:48;;;;;;;1.90;1.80;;;19.20;38.50;;;;;;4972774;28;20444;-62
2022/12/06 12:13:42;;;;;;;1.80;1.70;;;19.20;38.50;;;;;;4973946;28;20507;-62
2022/12/06 12:15:17;;;;;;;1.80;1.70;;;19.30;38.60;;;;;;4975144;28;20535;-61
2022/12/06 12:17:46;;;;;;;1.80;1.70;;;19.20;38.50;;;;;;4974321;28;20437;-61
2022/12/06 12:20:25;;;;;;;1.80;1.70;;;19.20;38.50;;;;;;4993665;28;21120;-61
2022/12/06 12:22:59;;;;;;;1.67;1.57;;;19.20;38.50;;;;;;4994858;28;20442;-61
2022/12/06 12:25:27;;;;;;;1.60;1.50;;;19.20;38.50;;;;;;4986982;28;20550;-61
2022/12/06 12:27:55;;;;;;;1.63;1.53;;;19.20;38.50;;;;;;5009312;28;21411;-61
2022/12/06 12:30:22;;;;;;;1.70;1.60;;;19.30;38.60;;;;;;4990056;28;20429;-62
2022/12/06 12:32:50;;;;;;;1.50;1.40;;;19.20;38.50;;;;;;4994671;28;20439;-61
2022/12/06 12:35:19;;;;;;;1.93;1.83;;;19.20;38.50;;;;;;4982616;28;20436;-61
2022/12/06 12:37:45;;;;;;;4.57;1.70;;;19.20;38.50;;;;;;4972318;28;20786;-62
2022/12/06 12:40:21;;;;;;;1.90;1.80;;;19.20;38.50;;;;;;4978650;28;20420;-61
2022/12/06 12:42:47;;;;;;;1.70;1.60;;;19.30;38.60;;;;;;4968335;28;20458;-62
2022/12/06 12:45:18;;;;;;;1.57;1.47;;;19.20;38.50;;;;;;4975589;28;21122;-61
2022/12/06 12:48:20;;;;;;;1.50;1.40;;;19.20;38.50;;;;;;4969580;28;21055;-61
2022/12/06 12:51:00;;;;;;;1.70;1.60;;;19.20;38.50;;;;;;4968383;28;20423;-61
2022/12/06 12:53:37;;;;;;;1.40;1.30;;;19.20;38.50;;;;;;4965683;28;20526;-61
2022/12/06 12:56:13;;;;;;;1.60;1.50;;;19.30;38.60;;;;;;4978755;28;20424;-62
2022/12/06 12:58:43;;;;;;;1.80;1.70;;;19.20;38.50;;;;;;4966620;28;20471;-62
2022/12/06 13:01:31;;;;;;;1.70;1.60;;;19.20;38.50;;;;;;4964025;28;20865;-62
2022/12/06 13:04:02;;;;;;;1.93;1.67;;;19.20;38.50;;;;;;4970682;28;20477;-61
2022/12/06 13:06:49;;;;;;;1.53;1.43;;;19.20;38.50;;;;;;4969281;28;20456;-61
2022/12/06 13:09:27;;;;;;;1.50;1.40;;;19.20;38.50;;;;;;4992962;28;20445;-61
2022/12/06 13:12:09;;;;;;;1.70;1.60;;;19.20;38.50;;;;;;4988782;28;20499;-62
2022/12/06 13:14:41;;;;;;;1.70;1.60;;;19.30;38.60;;;;;;4967152;28;20781;-61
2022/12/06 13:17:11;;;;;;;1.47;1.37;;;19.20;38.50;;;;;;4981585;28;20430;-61
2022/12/06 13:19:44;;;;;;;1.50;1.40;;;19.20;38.50;;;;;;4986909;28;20459;-62
2022/12/06 13:22:18;;;;;;;1.20;1.10;;;19.30;38.60;;;;;;4989191;28;20992;-62
2022/12/06 13:24:45;;;;;;;1.60;1.50;;;19.30;38.60;;;;;;4989849;28;20468;-61
2022/12/06 13:27:15;;;;;;;1.50;1.40;;;19.20;38.50;;;;;;4992424;28;21050;-61